Apex Endurance

Run To The Battle

Age Group Results

March 05, 2016


Results By Apex Endurance

Ainsley's Angels

Male 99 and Under

Place Name City Bib No Age Overall Chip Time Gun Time Pace
1 Bryce Buchanan 22 10 2 23:39.1 23:39.1 7:35/M
2 Pat Weatherford 106 46 3 25:24.0 25:24.0 8:08/M
 

Female 99 and Under

Place Name City Bib No Age Overall Chip Time Gun Time Pace
1 Summer Naron 80 36 1 23:06.1 23:06.1 7:24/M
2 Jacie McDougald 78 6 4 31:19.6 31:19.6 10:02/M
3 Kayla May 76 44 5 31:32.9 31:32.9 10:06/M
 

5k Runner

Male Overall Winners

Place Name City Bib No Age Overall Chip Time Gun Time Pace
1 Tanner Collins 114 17 1 18:09.2 18:09.2 5:49/M
2 Reid Handy 178 15 2 21:12.0 21:12.0 6:48/M
3 Abram Brumley 18 17 3 21:16.1 21:16.1 6:49/M
 

Male Masters Winners

Place Name City Bib No Age Overall Chip Time Gun Time Pace
1 Michael Joyner 70 50 6 21:26.7 21:26.7 6:52/M
 

Male 14 and Under

Place Name City Bib No Age Overall Chip Time Gun Time Pace
1 Chase Sartin 180 13 16 23:44.7 23:44.7 7:36/M
2 Michael Easterling 181 13 18 24:25.9 24:25.9 7:50/M
3 Mac Elkins 43 12 28 26:23.3 26:23.3 8:27/M
4 Spencer Elkins 44 12 29 26:23.6 26:23.6 8:27/M
5 Hunter Traxler 139 8 67 32:31.7 32:31.7 10:25/M
6 Matthew Lokey 170 14 78 33:50.9 33:50.9 10:51/M
7 Cason Oglesby 171 14 79 33:51.7 33:51.7 10:51/M
8 Nolan Jernigan 63 10 80 33:54.2 33:54.2 10:52/M
9 Reid Messinger 150 10 110 47:38.5 47:38.5 15:16/M
 

Male 15 to 19

Place Name City Bib No Age Overall Chip Time Gun Time Pace
1 Cason Handy 179 18 12 23:33.8 23:33.8 7:33/M
2 Billy Smith 91 15 30 26:27.6 26:27.6 8:29/M
3 Parker Ballinger 10 15 32 26:52.3 26:52.3 8:37/M
4 Luke Temple 155 19 56 30:43.0 30:43.0 9:51/M
5 Cade Spikes 152 17 89 36:42.3 36:42.3 11:46/M
6 Jacob Vandevender 103 18 124 49:39.2 49:39.2 15:55/M
 

Male 20 to 24

Place Name City Bib No Age Overall Chip Time Gun Time Pace
1 Matt Dye 42 22 82 34:33.1 34:33.1 11:04/M
 

Male 25 to 29

Place Name City Bib No Age Overall Chip Time Gun Time Pace
1 Greg Manley 75 29 19 25:08.2 25:08.2 8:03/M
2 Kendal Clayton 28 28 34 27:22.3 27:22.3 8:46/M
3 Samuel Moore 162 28 37 27:54.7 27:54.7 8:57/M
4 Matthew Ford 46 28 42 28:42.5 28:42.5 9:12/M
5 Darren Guess 163 28 46 29:17.3 29:17.3 9:23/M
6 Logan Roberson 174 26 53 30:30.3 30:30.3 9:47/M
7 Blake Davis 34 29 62 31:35.7 31:35.7 10:07/M
8 Andrew Dye 40 27 83 34:33.2 34:33.2 11:04/M
 

Male 30 to 34

Place Name City Bib No Age Overall Chip Time Gun Time Pace
1 Will Crow 123 33 27 25:56.8 25:56.8 8:19/M
2 Cole Barthel 13 33 41 28:37.3 28:37.3 9:10/M
3 Cody Albritton 3 30 63 31:35.9 31:35.9 10:07/M
4 Steve JR Traxler 137 33 68 32:32.3 32:32.3 10:26/M
 

Male 35 to 39

Place Name City Bib No Age Overall Chip Time Gun Time Pace
1 David Saleh 166 39 4 21:18.9 21:18.9 6:50/M
2 Brandon Broussard 17 38 8 22:56.2 22:56.2 7:21/M
3 Quindell Wilson 117 39 11 23:06.6 23:06.6 7:24/M
4 Michael Durham 145 36 14 23:38.0 23:38.0 7:34/M
5 Neal Sanderson 88 38 17 23:54.3 23:54.3 7:40/M
6 Ryan Pierce 184 35 23 25:14.8 25:14.8 8:05/M
7 Jody Pickett 82 35 40 28:32.2 28:32.2 9:09/M
8 Brad Hill 57 38 77 33:45.3 33:45.3 10:49/M
9 Jed Robinson 85 35 114 48:31.3 48:31.3 15:33/M
 

Male 40 to 44

Place Name City Bib No Age Overall Chip Time Gun Time Pace
1 Jason Parks 121 40 15 23:39.6 23:39.6 7:35/M
2 Rick Vandevender 104 41 25 25:37.1 25:37.1 8:13/M
3 James Breaux 128 42 33 27:05.1 27:05.1 8:41/M
4 Matt Turpin 100 40 95 39:40.8 39:40.8 12:43/M
5 Matt Wegner 110 42 108 46:31.6 46:31.6 14:55/M
6 Jeff Messinger 148 41 111 47:46.8 47:46.8 15:19/M
 

Male 45 to 49

Place Name City Bib No Age Overall Chip Time Gun Time Pace
1 John Austin 5 48 26 25:37.4 25:37.4 8:13/M
2 Jorgen Aaen 169 48 71 32:51.8 32:51.8 10:32/M
3 Steve Allen 4 46 72 32:53.9 32:53.9 10:32/M
4 JJ Huggins 60 48 92 37:18.5 37:18.5 11:57/M
5 Dewayne Madden 131 49 97 39:52.3 39:52.3 12:47/M
 

Male 50 to 54

Place Name City Bib No Age Overall Chip Time Gun Time Pace
1 Mark Schiltz 118 53 10 22:59.1 22:59.1 7:22/M
2 Rodney Dickerson 140 50 13 23:37.1 23:37.1 7:34/M
 

Male 55 to 59

Place Name City Bib No Age Overall Chip Time Gun Time Pace
1 James Toney 227 57 24 25:24.7 25:24.7 8:08/M
2 Mark Raley 175 58 52 30:29.7 30:29.7 9:46/M
3 Jay George 51 55 105 44:20.1 44:20.1 14:13/M
 

Male 60 to 64

Place Name City Bib No Age Overall Chip Time Gun Time Pace
1 Joseph Haller 161 63 9 22:57.9 22:57.9 7:21/M
2 Jake Wyrick 124 64 45 29:06.2 29:06.2 9:20/M
3 Joseph Jacobs 158 61 59 31:15.2 31:15.2 10:01/M
4 Steve Traxler 136 64 70 32:45.5 32:45.5 10:30/M
5 Rick Stagg 93 62 100 43:26.1 43:26.1 13:55/M
 

Male 65 to 69

Place Name City Bib No Age Overall Chip Time Gun Time Pace
1 Steven Pawlitschek 164 65 31 26:45.8 26:45.8 8:34/M
2 Mike Smith 92 65 50 30:15.4 30:15.4 9:42/M
 

Male 70 and Over

Place Name City Bib No Age Overall Chip Time Gun Time Pace
1 Joe Lane 74 70 21 25:11.8 25:11.8 8:04/M
2 Jack Thigpen 98 70 39 28:13.9 28:13.9 9:03/M
 

Female Overall Winners

Place Name City Bib No Age Overall Chip Time Gun Time Pace
1 Taylor Smiley 135 13 5 21:22.0 21:22.0 6:51/M
2 Barbara Harrison 165 30 7 21:26.8 21:26.8 6:52/M
3 Carolyn Dorris 173 12 20 25:09.0 25:09.0 8:04/M
 

Female Masters Winners

Place Name City Bib No Age Overall Chip Time Gun Time Pace
1 Melinda Hendrix 141 46 38 28:02.5 28:02.5 8:59/M
 

Female 14 and Under

Place Name City Bib No Age Overall Chip Time Gun Time Pace
1 Caroline Marshall 177 13 86 35:19.2 35:19.2 11:19/M
2 Kate Turpin 101 7 96 39:40.8 39:40.8 12:43/M
3 Madeline Robinson 86 7 99 42:51.7 42:51.7 13:44/M
4 Taylor Jernigan 64 12 130 51:33.6 51:33.6 16:31/M
 

Female 15 to 19

Place Name City Bib No Age Overall Chip Time Gun Time Pace
1 Kelsey Powell 84 17 22 25:12.6 25:12.6 8:05/M
2 Lauren Creel 30 15 66 32:15.8 32:15.8 10:20/M
3 Courtney Kidd 72 19 73 32:58.9 32:58.9 10:34/M
4 Tricia Madden 132 19 76 33:43.3 33:43.3 10:48/M
5 Emily Webre 107 19 87 35:26.0 35:26.0 11:21/M
6 Kennedy Allen 149 16 90 36:42.5 36:42.5 11:46/M
 

Female 20 to 24

Place Name City Bib No Age Overall Chip Time Gun Time Pace
1 Sidney Lafleur 73 22 35 27:33.2 27:33.2 8:50/M
2 Haley Ballinger 9 20 36 27:46.0 27:46.0 8:54/M
3 Kallie Ethridge 147 22 43 28:44.0 28:44.0 9:13/M
4 Olivia Dixon 37 22 44 28:51.6 28:51.6 9:15/M
5 Lauren Ford 45 22 55 30:33.9 30:33.9 9:48/M
 

Female 25 to 29

Place Name City Bib No Age Overall Chip Time Gun Time Pace
1 Aly Taylor 157 28 57 30:48.7 30:48.7 9:52/M
2 Lauren Hinton 58 27 84 34:44.8 34:44.8 11:08/M
3 Erica Johnson 168 25 85 34:44.8 34:44.8 11:08/M
4 Holly Gibbs 52 26 98 40:48.8 40:48.8 13:05/M
5 Samantha McNeely 133 28 127 50:36.8 50:36.8 16:13/M
 

Female 30 to 34

Place Name City Bib No Age Overall Chip Time Gun Time Pace
1 Rebekah Baker 7 33 47 29:22.9 29:22.9 9:25/M
2 Dawn Bailey 127 31 48 29:32.9 29:32.9 9:28/M
3 Lacy Sanderson 87 34 49 29:52.3 29:52.3 9:34/M
4 Kelli Daniel 32 33 58 30:51.5 30:51.5 9:53/M
5 Shelley Hendrix 116 34 65 32:15.1 32:15.1 10:20/M
6 Michelle Crow 122 30 69 32:34.7 32:34.7 10:26/M
7 DeAnn Morris 134 33 126 50:36.6 50:36.6 16:13/M
 

Female 35 to 39

Place Name City Bib No Age Overall Chip Time Gun Time Pace
1 Amy Keifenheim 71 37 60 31:19.2 31:19.2 10:02/M
2 Misty Wilson 112 37 64 32:09.3 32:09.3 10:18/M
3 Wendy Richey 144 39 74 33:28.7 33:28.7 10:44/M
4 Mindy Adams 2 39 75 33:28.8 33:28.8 10:44/M
5 Erin Ferguson 182 39 81 34:14.4 34:14.4 10:58/M
6 Danena Holman 59 39 94 39:21.2 39:21.2 12:37/M
7 Danielle Wegner 109 35 115 48:53.8 48:53.8 15:40/M
8 Brandi Sisk 89 38 123 49:37.9 49:37.9 15:54/M
9 Belinda Daniels 33 39 131 53:16.3 53:16.3 17:04/M
10 Donna Vandevender 102 39 132 57:53.5 57:53.5 18:33/M
 

Female 40 to 44

Place Name City Bib No Age Overall Chip Time Gun Time Pace
1 Tracy Oglesby 172 41 51 30:23.9 30:23.9 9:44/M
2 Kimberly Adams 126 44 54 30:32.7 30:32.7 9:47/M
3 Rhonda DeNardo 35 44 109 47:22.2 47:22.2 15:11/M
4 Rachel Creel 31 41 125 49:52.7 49:52.7 15:59/M
5 Linda Garcia 129 40 128 50:36.9 50:36.9 16:13/M
 

Female 45 to 49

Place Name City Bib No Age Overall Chip Time Gun Time Pace
1 Penny Graf 167 48 103 43:59.7 43:59.7 14:06/M
2 Karen Webre 108 49 116 48:57.3 48:57.3 15:41/M
 

Female 50 to 54

Place Name City Bib No Age Overall Chip Time Gun Time Pace
1 Terry Toney 228 54 61 31:19.8 31:19.8 10:02/M
2 Kim Dupont 38 53 104 44:00.1 44:00.1 14:06/M
3 Cindy Gray 55 54 113 48:27.2 48:27.2 15:32/M
4 Cindy George 50 52 117 49:13.7 49:13.7 15:46/M
5 Donna Powell 83 52 118 49:14.0 49:14.0 15:47/M
6 Amy Dye 39 52 119 49:14.1 49:14.1 15:47/M
7 Pam Funderburg 146 54 120 49:14.2 49:14.2 15:47/M
8 Angie Madden 130 50 129 51:02.1 51:02.1 16:21/M
 

Female 55 to 59

Place Name City Bib No Age Overall Chip Time Gun Time Pace
1 Diana Hux 61 59 93 39:20.8 39:20.8 12:36/M
2 Gina White 111 56 102 43:42.3 43:42.3 14:00/M
3 Kayla Raley 176 57 106 44:24.4 44:24.4 14:14/M
 

Female 60 to 64

Place Name City Bib No Age Overall Chip Time Gun Time Pace
1 Dee Wyrick 125 60 91 37:16.7 37:16.7 11:57/M
2 Susan Stagg 94 60 101 43:26.5 43:26.5 13:55/M
 

Female 65 to 69

Place Name City Bib No Age Overall Chip Time Gun Time Pace
1 Hazel Thorn 99 65 88 35:56.0 35:56.0 11:31/M
2 Ann Thigpen 97 68 122 49:37.7 49:37.7 15:54/M
 

Female 70 and Over

Place Name City Bib No Age Overall Chip Time Gun Time Pace
1 Lois Bearden 14 74 107 44:33.7 44:33.7 14:17/M
2 Ginger Graham 54 71 112 48:06.1 48:06.1 15:25/M
3 Jane Burson 23 73 121 49:24.6 49:24.6 15:50/M
4 Carolyn Goldman 115 70 133 57:53.7 57:53.7 18:33/M
 

10k Runner

Male Overall Winners

Place Name City Bib No Age Overall Chip Time Gun Time Pace
1 Greg Schmidt 243 36 1 44:18.7 44:18.7 7:06/M
2 Brent Creel 247 38 2 47:03.0 47:03.0 7:32/M
3 Heath Long 236 34 5 49:15.0 49:15.0 7:54/M
 

Male Masters Winners

Place Name City Bib No Age Overall Chip Time Gun Time Pace
1 James Goldman 217 48 3 47:05.2 47:05.2 7:33/M
 

Male 20 to 24

Place Name City Bib No Age Overall Chip Time Gun Time Pace
1 Marshall Henson 218 20 35 1:13:20.3 1:13:20.3 11:45/M
 

Male 25 to 29

Place Name City Bib No Age Overall Chip Time Gun Time Pace
1 Jason Carroll 241 27 18 1:00:34.5 1:00:34.5 9:42/M
2 Kevin Patrick 237 28 37 1:16:04.2 1:16:04.2 12:11/M
 

Male 30 to 34

Place Name City Bib No Age Overall Chip Time Gun Time Pace
1 Jonathan Gibbs 240 33 7 50:51.7 50:51.7 8:09/M
2 Joshua Creel 248 34 11 53:39.2 53:39.2 8:36/M
3 Joseph Armstrong 202 31 31 1:10:55.2 1:10:55.2 11:22/M
 

Male 40 to 44

Place Name City Bib No Age Overall Chip Time Gun Time Pace
1 Matt Wilson 232 41 10 53:38.4 53:38.4 8:36/M
2 Brad Burtram 245 44 12 55:06.9 55:06.9 8:50/M
3 Robbie Accardo 200 42 27 1:09:45.6 1:09:45.6 11:11/M
4 Brian Clark 207 40 33 1:12:54.7 1:12:54.7 11:41/M
 

Male 45 to 49

Place Name City Bib No Age Overall Chip Time Gun Time Pace
1 Nicholas DeNardo 209 45 8 51:42.8 51:42.8 8:17/M
2 Terry Hogue 219 48 16 59:44.0 59:44.0 9:34/M
 

Male 55 to 59

Place Name City Bib No Age Overall Chip Time Gun Time Pace
1 Paul West 230 58 6 50:13.5 50:13.5 8:03/M
2 Bobby Jones 249 56 22 1:06:36.6 1:06:36.6 10:40/M
 

Male 60 to 64

Place Name City Bib No Age Overall Chip Time Gun Time Pace
1 Brad Borth 242 62 19 1:02:20.7 1:02:20.7 9:59/M
2 Steve Birmingham 203 62 25 1:08:48.8 1:08:48.8 11:02/M
 

Female Overall Winners

Place Name City Bib No Age Overall Chip Time Gun Time Pace
1 Morgan Aitken 201 26 4 48:55.9 48:55.9 7:50/M
2 Karin Bennett 233 32 9 52:27.8 52:27.8 8:24/M
3 Lissy Compton 208 36 14 57:50.0 57:50.0 9:16/M
 

Female Masters Winners

Place Name City Bib No Age Overall Chip Time Gun Time Pace
1 Angela Douget 211 46 13 57:33.0 57:33.0 9:13/M
 

Female 20 to 24

Place Name City Bib No Age Overall Chip Time Gun Time Pace
1 Masie Eubanks 212 20 36 1:13:20.5 1:13:20.5 11:45/M
2 Sarah Willis 234 20 38 1:17:44.8 1:17:44.8 12:27/M
 

Female 25 to 29

Place Name City Bib No Age Overall Chip Time Gun Time Pace
1 Casey Carroll 205 27 21 1:06:13.9 1:06:13.9 10:37/M
2 Cara Morrison 223 29 24 1:07:16.4 1:07:16.4 10:47/M
 

Female 30 to 34

Place Name City Bib No Age Overall Chip Time Gun Time Pace
1 Adrienne Bridges 204 32 15 59:22.7 59:22.7 9:31/M
2 Lindsay Schmidt 244 34 17 1:00:33.3 1:00:33.3 9:42/M
3 Julie Morris 222 32 23 1:07:16.3 1:07:16.3 10:47/M
4 Rachel Rose 238 34 34 1:12:56.6 1:12:56.6 11:41/M
 

Female 35 to 39

Place Name City Bib No Age Overall Chip Time Gun Time Pace
1 Jennifer Turpin 229 38 26 1:08:49.5 1:08:49.5 11:02/M
2 Amy Farmer 213 38 30 1:10:13.5 1:10:13.5 11:15/M
3 Laura Wooden 246 35 32 1:12:34.6 1:12:34.6 11:38/M
 

Female 40 to 44

Place Name City Bib No Age Overall Chip Time Gun Time Pace
1 Lori Thames 226 43 20 1:03:19.9 1:03:19.9 10:09/M
2 Debra Gammill 216 41 28 1:10:07.0 1:10:07.0 11:14/M
 

Female 50 to 54

Place Name City Bib No Age Overall Chip Time Gun Time Pace
1 Lori Chenault 206 51 29 1:10:08.0 1:10:08.0 11:14/M